createdAt,value
2022-11-05T00:02:20.588Z,100424.44
2022-11-05T00:05:11.084Z,100427.69
2022-11-05T00:08:01.160Z,100432.19
2022-11-05T00:10:33.002Z,100429.75
2022-11-05T00:13:23.156Z,100434.91
2022-11-05T00:16:13.639Z,100435.94
2022-11-05T00:18:45.116Z,100438.59
2022-11-05T00:21:35.502Z,100442.13
2022-11-05T00:24:26.219Z,100440.50
2022-11-05T00:26:57.716Z,100441.69
2022-11-05T00:29:29.814Z,100445.97
2022-11-05T00:32:01.308Z,100440.88
2022-11-05T00:34:33.150Z,100452.34
2022-11-05T00:37:04.661Z,100451.75
2022-11-05T00:39:36.483Z,100455.81
2022-11-05T00:42:26.596Z,100451.97
2022-11-05T00:45:01.317Z,100458.31
2022-11-05T00:47:51.663Z,100465.25
2022-11-05T00:50:23.578Z,100464.22
2022-11-05T00:52:59.426Z,100469.31
2022-11-05T00:55:31.554Z,100470.72
2022-11-05T00:58:03.084Z,100476.47
2022-11-05T01:00:35.056Z,100468.13
2022-11-05T01:03:06.604Z,100475.47
2022-11-05T01:05:38.416Z,100483.06
2022-11-05T01:08:09.974Z,100484.25
2022-11-05T01:10:41.852Z,100487.94
2022-11-05T01:13:13.634Z,100485.06
2022-11-05T01:15:45.569Z,100496.91
2022-11-05T01:18:17.060Z,100492.38
2022-11-05T01:20:48.892Z,100494.84
2022-11-05T01:23:20.934Z,100497.72
2022-11-05T01:25:53.296Z,100495.06
2022-11-05T01:28:24.855Z,100489.94
2022-11-05T01:30:56.832Z,100489.72
2022-11-05T01:33:28.345Z,100500.59
2022-11-05T01:35:59.909Z,100498.13
2022-11-05T01:38:31.710Z,100500.63
2022-11-05T01:41:03.200Z,100501.22
2022-11-05T01:43:35.050Z,100508.81
2022-11-05T01:46:06.566Z,100508.59
2022-11-05T01:48:38.404Z,100509.69
2022-11-05T01:51:09.913Z,100509.88
2022-11-05T01:53:41.738Z,100504.75
2022-11-05T01:56:13.238Z,100508.88
2022-11-05T01:58:45.078Z,100507.25
2022-11-05T02:01:16.633Z,100507.25
2022-11-05T02:03:48.532Z,100515.44
2022-11-05T02:06:20.045Z,100524.88
2022-11-05T02:08:52.029Z,100524.88
2022-11-05T02:11:23.535Z,100526.31
2022-11-05T02:13:55.406Z,100535.97
2022-11-05T02:16:26.891Z,100532.50
2022-11-05T02:18:58.812Z,100539.25
2022-11-05T02:21:30.294Z,100541.31
2022-11-05T02:24:02.082Z,100546.63
2022-11-05T02:26:33.603Z,100544.78
2022-11-05T02:29:05.534Z,100554.00
2022-11-05T02:31:37.033Z,100543.19
2022-11-05T02:34:08.873Z,100551.97
2022-11-05T02:36:40.469Z,100554.00
2022-11-05T02:39:12.639Z,100560.16
2022-11-05T02:41:44.121Z,100555.66
2022-11-05T02:44:15.965Z,100564.44
2022-11-05T02:46:47.602Z,100557.31
2022-11-05T02:49:19.458Z,100560.59
2022-11-05T02:51:51.027Z,100575.09
2022-11-05T02:54:22.787Z,100571.84
2022-11-05T02:56:54.389Z,100578.78
2022-11-05T02:59:26.275Z,100577.97
2022-11-05T03:01:57.979Z,100580.41
2022-11-05T03:04:29.955Z,100585.94
2022-11-05T03:07:01.502Z,100588.19
2022-11-05T03:09:33.413Z,100584.50
2022-11-05T03:12:05.238Z,100588.81
2022-11-05T03:14:37.072Z,100592.28
2022-11-05T03:17:08.567Z,100593.31
2022-11-05T03:19:40.511Z,100598.63
2022-11-05T03:22:12.017Z,100602.69
2022-11-05T03:24:43.977Z,100605.13
2022-11-05T03:27:15.471Z,100349.56
2022-11-05T03:29:46.984Z,100606.78
2022-11-05T03:32:18.586Z,100614.34
2022-11-05T03:34:50.432Z,100619.88
2022-11-05T03:37:21.938Z,100620.06
2022-11-05T03:39:53.889Z,100623.34
2022-11-05T03:42:25.831Z,100641.13
2022-11-05T03:44:57.667Z,100626.84
2022-11-05T03:47:29.147Z,100628.47
2022-11-05T03:50:01.023Z,100639.28
2022-11-05T03:52:32.529Z,100642.97
2022-11-05T03:55:04.093Z,100641.94
2022-11-05T03:57:35.641Z,100647.66
2022-11-05T04:00:07.494Z,100643.56
2022-11-05T04:02:39.436Z,100641.50
2022-11-05T04:05:11.114Z,100651.13
2022-11-05T04:08:01.741Z,100655.81
2022-11-05T04:11:05.341Z,100668.47
2022-11-05T04:13:37.151Z,100675.84
2022-11-05T04:16:27.264Z,100672.97
2022-11-05T04:18:59.091Z,100671.34
2022-11-05T04:21:49.234Z,100677.28
2022-11-05T04:24:21.074Z,100667.28
2022-11-05T04:26:52.603Z,100678.28
2022-11-05T04:29:42.973Z,100681.97
2022-11-05T04:32:14.474Z,100680.75
2022-11-05T04:34:46.412Z,100687.06
2022-11-05T04:37:17.984Z,100694.63
2022-11-05T04:39:49.847Z,100698.50
2022-11-05T04:42:21.437Z,100700.34
2022-11-05T04:44:53.318Z,100700.91
2022-11-05T04:47:24.861Z,100701.94
2022-11-05T04:49:56.803Z,100695.00
2022-11-05T04:52:28.296Z,100696.63
2022-11-05T04:55:01.147Z,100692.13
2022-11-05T04:57:32.700Z,100694.78
2022-11-05T05:00:04.583Z,100699.28
2022-11-05T05:02:36.123Z,100692.97
2022-11-05T05:05:07.996Z,100702.75
2022-11-05T05:07:39.560Z,100696.22
2022-11-05T05:10:11.426Z,100692.53
2022-11-05T05:12:42.997Z,100694.59
2022-11-05T05:15:14.821Z,100691.09
2022-11-05T05:17:46.307Z,100689.28
2022-11-05T05:20:36.951Z,100692.75
2022-11-05T05:23:09.121Z,100690.91
2022-11-05T05:25:40.829Z,100709.69
2022-11-05T05:28:12.699Z,100706.59
2022-11-05T05:30:44.188Z,100717.63
2022-11-05T05:33:16.018Z,100719.66
2022-11-05T05:35:47.570Z,100725.97
2022-11-05T05:38:19.461Z,100741.91
2022-11-05T05:40:50.961Z,100738.84
2022-11-05T05:43:22.770Z,100745.78
2022-11-05T05:45:54.344Z,100749.84
2022-11-05T05:48:25.855Z,100753.47
2022-11-05T05:50:57.391Z,100753.25
2022-11-05T05:53:29.285Z,100757.75
2022-11-05T05:56:00.830Z,100759.16
2022-11-05T05:58:32.616Z,100768.97
2022-11-05T06:01:04.167Z,100766.91
2022-11-05T06:03:36.125Z,100777.94
2022-11-05T06:06:07.671Z,100770.16
2022-11-05T06:08:39.214Z,100777.09
2022-11-05T06:11:10.825Z,100785.06
2022-11-05T06:13:42.723Z,100777.31
2022-11-05T06:16:14.240Z,100788.13
2022-11-05T06:18:46.045Z,100794.44
2022-11-05T06:21:17.561Z,100802.59
2022-11-05T06:23:50.130Z,100807.47
2022-11-05T06:26:21.653Z,100816.88
2022-11-05T06:28:53.483Z,100817.06
2022-11-05T06:31:24.996Z,100821.16
2022-11-05T06:33:56.826Z,100822.34
2022-11-05T06:36:28.324Z,100835.63
2022-11-05T06:38:59.853Z,100835.44
2022-11-05T06:41:31.350Z,100835.63
2022-11-05T06:44:03.376Z,100836.63
2022-11-05T06:46:34.874Z,100842.94
2022-11-05T06:49:06.888Z,100839.69
2022-11-05T06:51:38.374Z,100843.97
2022-11-05T06:54:10.202Z,100853.56
2022-11-05T06:56:41.710Z,100859.28
2022-11-05T06:59:13.692Z,100859.09
2022-11-05T07:01:45.303Z,100859.34
2022-11-05T07:04:17.270Z,100867.47
2022-11-05T07:06:48.766Z,100868.06
2022-11-05T07:09:20.568Z,100874.63
2022-11-05T07:11:52.115Z,100878.91
2022-11-05T07:14:23.979Z,100878.09
2022-11-05T07:16:55.478Z,100875.00
2022-11-05T07:19:27.345Z,100872.78
2022-11-05T07:21:58.911Z,100882.56
2022-11-05T07:24:30.762Z,100886.03
2022-11-05T07:27:02.611Z,100891.59
2022-11-05T07:29:34.143Z,100892.00
2022-11-05T07:32:05.987Z,100893.66
2022-11-05T07:34:37.513Z,100897.59
2022-11-05T07:37:09.509Z,100898.44
2022-11-05T07:39:41.020Z,100901.91
2022-11-05T07:42:12.947Z,100901.91
2022-11-05T07:44:44.440Z,100905.22
2022-11-05T07:47:16.269Z,100903.81
2022-11-05T07:49:47.778Z,100905.53
2022-11-05T07:52:19.624Z,100906.66
2022-11-05T07:54:51.118Z,100901.78
2022-11-05T07:57:23.167Z,100905.84
2022-11-05T07:59:54.698Z,100909.09
2022-11-05T08:02:26.431Z,100910.91
2022-11-05T08:04:58.056Z,100915.41
2022-11-05T08:07:29.625Z,100917.91
2022-11-05T08:10:03.525Z,100922.47
2022-11-05T08:12:35.373Z,100924.16
2022-11-05T08:15:06.867Z,100933.72
2022-11-05T08:17:38.879Z,100934.50
2022-11-05T08:20:10.377Z,100933.50
2022-11-05T08:22:42.188Z,100937.19
2022-11-05T08:25:13.681Z,100940.50
2022-11-05T08:27:46.116Z,100949.31
2022-11-05T08:30:17.640Z,100953.78
2022-11-05T08:32:49.507Z,100968.44
2022-11-05T08:35:21.027Z,100971.31
2022-11-05T08:37:52.892Z,100964.56
2022-11-05T08:40:24.519Z,100970.28
2022-11-05T08:42:56.431Z,100841.53
2022-11-05T08:45:28.061Z,100966.78
2022-11-05T08:48:00.245Z,100968.25
2022-11-05T08:50:31.839Z,100962.78
2022-11-05T08:53:03.370Z,100965.47
2022-11-05T08:55:34.873Z,100973.50
2022-11-05T08:58:06.512Z,100977.00
2022-11-05T09:00:38.087Z,100981.50
2022-11-05T09:03:10.307Z,100981.56
2022-11-05T09:05:42.893Z,100975.63
2022-11-05T09:08:14.455Z,100983.69
2022-11-05T09:10:46.010Z,100977.16
2022-11-05T09:13:19.695Z,100981.16
2022-11-05T09:15:51.487Z,100991.34
2022-11-05T09:18:23.410Z,100992.03
2022-11-05T09:20:55.254Z,100994.69
2022-11-05T09:23:26.765Z,100997.03
2022-11-05T09:25:58.661Z,100997.66
2022-11-05T09:28:31.711Z,100995.97
2022-11-05T09:31:03.643Z,100996.94
2022-11-05T09:33:35.160Z,101001.44
2022-11-05T09:36:07.066Z,101008.81
2022-11-05T09:38:38.589Z,101013.19
2022-11-05T09:41:10.444Z,101014.91
2022-11-05T09:43:41.976Z,101016.97
2022-11-05T09:46:13.966Z,101019.13
2022-11-05T09:48:45.455Z,101018.31
2022-11-05T09:51:23.490Z,101017.09
2022-11-05T09:53:56.365Z,101020.44
2022-11-05T09:56:28.314Z,101024.41
2022-11-05T09:58:59.915Z,101024.88
2022-11-05T10:01:32.288Z,101029.75
2022-11-05T10:04:03.935Z,101021.72
2022-11-05T10:06:35.851Z,101025.56
2022-11-05T10:09:07.417Z,101037.94
2022-11-05T10:11:39.444Z,101042.25
2022-11-05T10:14:10.959Z,101028.41
2022-11-05T10:16:42.789Z,101036.47
2022-11-05T10:19:14.303Z,101029.81
2022-11-05T10:22:05.702Z,101038.72
2022-11-05T10:24:37.633Z,101034.06
2022-11-05T10:27:09.633Z,101038.28
2022-11-05T10:29:41.135Z,101047.41
2022-11-05T10:32:12.954Z,101046.41
2022-11-05T10:34:44.454Z,101046.50
2022-11-05T10:37:16.282Z,101051.69
2022-11-05T10:39:47.800Z,101050.94
2022-11-05T10:42:19.659Z,101051.88
2022-11-05T10:44:51.147Z,101055.38
2022-11-05T10:47:22.968Z,101065.84
2022-11-05T10:49:54.441Z,101066.25
2022-11-05T10:52:26.263Z,101073.19
2022-11-05T10:54:57.750Z,101064.22
2022-11-05T10:57:29.594Z,101066.69
2022-11-05T11:00:01.065Z,101065.66
2022-11-05T11:02:34.299Z,101065.41
2022-11-05T11:05:05.831Z,101066.47
2022-11-05T11:07:37.641Z,101064.13
2022-11-05T11:10:09.174Z,101064.00
2022-11-05T11:12:41.322Z,101060.09
2022-11-05T11:15:12.861Z,101076.91
2022-11-05T11:17:44.690Z,101065.63
2022-11-05T11:20:16.222Z,101058.41
2022-11-05T11:22:48.044Z,101065.16
2022-11-05T11:25:19.537Z,101068.34
2022-11-05T11:27:51.397Z,101071.84
2022-11-05T11:30:22.900Z,101062.25
2022-11-05T11:32:54.733Z,101069.06
2022-11-05T11:35:26.979Z,101071.19
2022-11-05T11:38:00.811Z,101067.81
2022-11-05T11:40:32.767Z,101056.75
2022-11-05T11:43:04.295Z,101072.69
2022-11-05T11:45:36.144Z,101074.69
2022-11-05T11:48:07.738Z,101077.78
2022-11-05T11:50:39.739Z,101076.25
2022-11-05T11:53:11.505Z,101073.44
2022-11-05T11:55:43.483Z,101078.84
2022-11-05T11:58:14.984Z,101075.91
2022-11-05T12:00:46.802Z,101077.81
2022-11-05T12:03:18.715Z,101079.81
2022-11-05T12:05:50.780Z,101070.53
2022-11-05T12:08:22.288Z,101082.50
2022-11-05T12:10:54.391Z,101080.09
2022-11-05T12:13:25.930Z,101083.09
2022-11-05T12:15:57.890Z,101074.66
2022-11-05T12:18:29.384Z,101081.59
2022-11-05T12:21:01.328Z,101076.69
2022-11-05T12:23:32.831Z,101074.19
2022-11-05T12:26:04.623Z,101075.19
2022-11-05T12:28:36.357Z,101074.72
2022-11-05T12:31:08.267Z,101083.03
2022-11-05T12:33:39.781Z,101082.59
2022-11-05T12:36:11.669Z,101082.00
2022-11-05T12:38:43.156Z,101078.91
2022-11-05T12:41:15.144Z,101080.69
2022-11-05T12:43:46.649Z,101078.50
2022-11-05T12:46:18.488Z,101078.50
2022-11-05T12:48:49.998Z,101078.16
2022-11-05T12:51:22.048Z,101080.00
2022-11-05T12:53:53.555Z,101078.31
2022-11-05T12:56:25.452Z,101075.81
2022-11-05T12:58:56.958Z,101079.44
2022-11-05T13:01:29.001Z,101082.06
2022-11-05T13:04:00.905Z,101078.47
2022-11-05T13:06:32.690Z,101088.28
2022-11-05T13:09:04.348Z,101084.03
2022-11-05T13:11:36.259Z,101088.88
2022-11-05T13:14:07.758Z,101088.88
2022-11-05T13:16:39.722Z,101085.97
2022-11-05T13:19:11.214Z,101089.44
2022-11-05T13:21:43.046Z,101079.41
2022-11-05T13:24:14.550Z,101091.09
2022-11-05T13:26:46.341Z,101088.94
2022-11-05T13:29:17.903Z,101093.38
2022-11-05T13:31:49.771Z,101090.59
2022-11-05T13:34:21.246Z,101105.09
2022-11-05T13:37:11.628Z,101104.81
2022-11-05T13:39:43.115Z,101117.47
2022-11-05T13:42:14.887Z,101114.75
2022-11-05T13:44:46.387Z,101118.53
2022-11-05T13:47:18.244Z,101118.03
2022-11-05T13:49:49.806Z,101113.16
2022-11-05T13:52:21.709Z,101118.22
2022-11-05T13:54:53.189Z,101114.13
2022-11-05T13:57:25.137Z,101111.47
2022-11-05T13:59:56.657Z,101117.00
2022-11-05T14:02:28.596Z,101115.66
2022-11-05T14:05:01.644Z,101125.50
2022-11-05T14:07:33.769Z,101121.25
2022-11-05T14:10:05.295Z,101125.03
2022-11-05T14:12:37.173Z,101121.78
2022-11-05T14:15:09.387Z,101121.47
2022-11-05T14:17:41.259Z,101125.03
2022-11-05T14:20:12.769Z,101128.63
2022-11-05T14:22:44.651Z,101124.63
2022-11-05T14:25:16.152Z,101123.13
2022-11-05T14:27:48.116Z,101125.19
2022-11-05T14:30:19.606Z,101123.94
2022-11-05T14:32:53.397Z,101124.59
2022-11-05T14:35:25.250Z,101121.56
2022-11-05T14:37:56.741Z,101118.44
2022-11-05T14:40:28.706Z,101125.53
2022-11-05T14:43:00.259Z,101131.81
2022-11-05T14:45:32.381Z,101124.25
2022-11-05T14:48:03.913Z,101135.00
2022-11-05T14:50:35.793Z,101141.91
2022-11-05T14:53:07.278Z,101144.59
2022-11-05T14:55:39.321Z,101151.56
2022-11-05T14:58:10.792Z,101155.31
2022-11-05T15:00:42.720Z,101147.59
2022-11-05T15:03:14.394Z,101146.38
2022-11-05T15:05:46.417Z,101146.69
2022-11-05T15:08:17.908Z,101143.69
2022-11-05T15:10:49.814Z,101147.41
2022-11-05T15:13:21.301Z,101150.34
2022-11-05T15:15:53.252Z,101147.13
2022-11-05T15:18:24.776Z,101154.94
2022-11-05T15:20:56.602Z,101152.31
2022-11-05T15:23:28.111Z,101144.56
2022-11-05T15:25:59.922Z,101157.69
2022-11-05T15:28:31.468Z,101161.19
2022-11-05T15:31:03.496Z,101154.19
2022-11-05T15:33:35.040Z,101157.06
2022-11-05T15:36:06.862Z,101170.78
2022-11-05T15:38:38.489Z,101167.72
2022-11-05T15:41:10.460Z,101162.75
2022-11-05T15:43:47.533Z,101167.03
2022-11-05T15:46:23.422Z,101171.72
2022-11-05T15:48:54.896Z,101174.53
2022-11-05T15:51:27.062Z,101169.59
2022-11-05T15:56:50.584Z,101168.13
2022-11-05T15:59:22.100Z,101171.78
2022-11-05T16:01:54.094Z,101170.09
2022-11-05T16:04:25.655Z,101168.81
2022-11-05T16:06:57.478Z,101168.16
2022-11-05T16:09:29.019Z,101167.09
2022-11-05T16:12:00.848Z,101164.84
2022-11-05T16:14:32.374Z,101167.88
2022-11-05T16:17:04.179Z,101169.66
2022-11-05T16:19:40.203Z,101186.97
2022-11-05T16:22:12.554Z,101176.22
2022-11-05T16:24:44.241Z,101172.69
2022-11-05T16:27:19.412Z,101169.06
2022-11-05T16:29:51.461Z,101172.56
2022-11-05T16:32:28.579Z,101180.91
2022-11-05T16:35:01.625Z,101176.00
2022-11-05T16:37:33.447Z,101180.63
2022-11-05T16:40:04.924Z,101173.44
2022-11-05T16:42:36.827Z,101184.47
2022-11-05T16:45:08.408Z,101193.81
2022-11-05T16:47:40.226Z,101199.03
2022-11-05T16:50:11.706Z,101205.47
2022-11-05T16:52:43.694Z,101206.22
2022-11-05T16:55:15.172Z,101209.50
2022-11-05T16:57:47.171Z,101213.16
2022-11-05T17:00:18.710Z,101210.25
2022-11-05T17:02:50.683Z,101218.78
2022-11-05T17:05:22.324Z,101224.91
2022-11-05T17:07:53.851Z,101228.31
2022-11-05T17:10:25.402Z,101223.41
2022-11-05T17:12:57.263Z,101236.66
2022-11-05T17:15:29.514Z,101239.44
2022-11-05T17:18:01.374Z,101245.50
2022-11-05T17:20:39.590Z,101241.72
2022-11-05T17:23:12.484Z,101247.47
2022-11-05T17:25:44.501Z,101259.00
2022-11-05T17:28:16.646Z,101254.72
2022-11-05T17:30:54.893Z,101255.25
2022-11-05T17:33:26.431Z,101256.81
2022-11-05T17:35:58.288Z,101257.19
2022-11-05T17:38:29.829Z,101257.75
2022-11-05T17:41:01.880Z,101259.13
2022-11-05T17:43:33.430Z,101260.97
2022-11-05T17:46:05.439Z,101265.19
2022-11-05T17:48:36.947Z,101262.34
2022-11-05T17:51:08.751Z,101262.53
2022-11-05T17:53:40.289Z,101267.19
2022-11-05T17:56:11.821Z,101267.38
2022-11-05T17:58:43.343Z,101269.75
2022-11-05T18:01:14.951Z,101278.06
2022-11-05T18:03:46.687Z,101268.63
2022-11-05T18:06:18.886Z,101269.13
2022-11-05T18:08:50.634Z,101279.72
2022-11-05T18:11:22.843Z,101272.41
2022-11-05T18:13:54.606Z,101270.03
2022-11-05T18:16:26.835Z,101276.72
2022-11-05T18:18:58.363Z,101267.09
2022-11-05T18:21:29.945Z,101276.97
2022-11-05T18:24:01.455Z,101268.75
2022-11-05T18:26:33.313Z,101272.09
2022-11-05T18:29:04.802Z,101265.91
2022-11-05T18:31:36.835Z,101270.94
2022-11-05T18:34:10.341Z,101268.09
2022-11-05T18:36:41.860Z,101267.44
2022-11-05T18:39:13.389Z,101264.97
2022-11-05T18:41:44.965Z,101267.34
2022-11-05T18:44:16.784Z,101269.25
2022-11-05T18:46:58.099Z,101271.44
2022-11-05T18:49:30.315Z,101273.16
2022-11-05T18:52:01.854Z,101265.56
2022-11-05T18:54:33.348Z,101271.41
2022-11-05T18:57:04.969Z,101270.13
2022-11-05T18:59:39.230Z,101268.00
2022-11-05T19:02:11.571Z,101279.44
2022-11-05T19:05:00.724Z,101284.91
2022-11-05T19:07:37.352Z,101283.44
2022-11-05T19:10:08.872Z,101282.13
2022-11-05T19:12:40.356Z,101275.72
2022-11-05T19:15:11.853Z,101274.25
2022-11-05T19:17:43.349Z,101279.91
2022-11-05T19:20:15.296Z,101278.63
2022-11-05T19:22:46.858Z,101123.50
2022-11-05T19:25:18.404Z,101286.78
2022-11-05T19:27:50.010Z,101283.03
2022-11-05T19:30:21.865Z,101283.06
2022-11-05T19:32:53.347Z,101288.84
2022-11-05T19:35:25.187Z,101289.03
2022-11-05T19:37:56.742Z,101284.91
2022-11-05T19:40:28.294Z,101287.72
2022-11-05T19:42:59.793Z,101288.91
2022-11-05T19:45:44.806Z,101287.44
2022-11-05T19:48:19.678Z,101285.13
2022-11-05T19:50:51.609Z,101293.25
2022-11-05T19:53:23.101Z,101294.59
2022-11-05T19:55:54.934Z,101289.81
2022-11-05T19:58:26.449Z,101283.88
2022-11-05T20:00:57.968Z,101284.06
2022-11-05T20:03:29.580Z,101284.38
2022-11-05T20:06:01.254Z,101285.06
2022-11-05T20:08:32.782Z,101282.94
2022-11-05T20:11:04.298Z,101283.66
2022-11-05T20:13:35.821Z,101287.94
2022-11-05T20:16:07.627Z,101281.16
2022-11-05T20:18:39.141Z,101285.16
2022-11-05T20:21:11.786Z,101291.63
2022-11-05T20:23:43.286Z,101293.94
2022-11-05T20:26:15.013Z,101289.00
2022-11-05T20:28:46.526Z,101290.97
2022-11-05T20:31:18.144Z,101296.94
2022-11-05T20:33:49.728Z,101301.56
2022-11-05T20:36:22.178Z,101305.56
2022-11-05T20:38:55.137Z,101317.47
2022-11-05T20:41:26.775Z,101317.78
2022-11-05T20:46:33.114Z,101320.94
2022-11-05T20:49:04.635Z,101320.59
2022-11-05T20:51:36.135Z,101327.41
2022-11-05T20:54:07.857Z,101316.50
2022-11-05T20:56:39.583Z,101317.84
2022-11-05T20:59:11.072Z,101313.88
2022-11-05T21:01:42.732Z,101310.41
2022-11-05T21:04:14.370Z,101311.72
2022-11-05T21:06:46.377Z,101317.84
2022-11-05T21:09:17.887Z,101316.84
2022-11-05T21:12:08.756Z,101319.16
2022-11-05T21:14:40.273Z,101317.97
2022-11-05T21:17:12.307Z,101315.84
2022-11-05T21:19:43.847Z,101323.94
2022-11-05T21:22:15.966Z,101319.47
2022-11-05T21:24:48.400Z,101327.72
2022-11-05T21:27:19.889Z,101325.75
2022-11-05T21:29:51.705Z,101322.94
2022-11-05T21:32:23.193Z,101325.91
2022-11-05T21:34:55.164Z,101328.22
2022-11-05T21:37:26.710Z,101039.84
2022-11-05T21:39:58.240Z,101323.75
2022-11-05T21:42:29.742Z,101317.66
2022-11-05T21:45:01.257Z,101315.84
2022-11-05T21:47:32.910Z,101312.19
2022-11-05T21:50:04.433Z,101310.91
2022-11-05T21:52:54.826Z,101319.50
2022-11-05T21:55:45.262Z,101317.00
2022-11-05T21:58:35.375Z,101307.56
2022-11-05T22:01:07.222Z,101305.28
2022-11-05T22:03:38.741Z,101309.91
2022-11-05T22:06:10.747Z,101317.34
2022-11-05T22:08:42.251Z,101309.56
2022-11-05T22:11:14.053Z,101309.56
2022-11-05T22:13:45.565Z,101301.50
2022-11-05T22:16:17.095Z,101306.94
2022-11-05T22:18:48.664Z,101306.44
2022-11-05T22:21:20.473Z,101299.34
2022-11-05T22:23:52.008Z,101306.63
2022-11-05T22:26:23.857Z,101302.66
2022-11-05T22:28:55.378Z,101303.66
2022-11-05T22:31:29.518Z,101312.72
2022-11-05T22:34:04.743Z,101303.50
2022-11-05T22:36:36.600Z,101315.06
2022-11-05T22:39:08.178Z,101308.94
2022-11-05T22:41:40.265Z,101306.63
2022-11-05T22:44:14.043Z,101308.44
2022-11-05T22:46:45.531Z,101311.25
2022-11-05T22:49:17.447Z,101307.28
2022-11-05T22:51:48.944Z,101307.78
2022-11-05T22:54:20.821Z,101308.94
2022-11-05T22:56:53.731Z,101309.59
2022-11-05T22:59:25.279Z,101306.44
2022-11-05T23:01:56.947Z,101316.50
2022-11-05T23:04:28.905Z,101318.00
2022-11-05T23:07:23.131Z,101318.31
2022-11-05T23:10:16.398Z,101318.16
2022-11-05T23:12:47.876Z,101316.84
2022-11-05T23:15:38.263Z,101316.84
2022-11-05T23:18:28.692Z,101313.03
2022-11-05T23:21:22.816Z,101313.19
2022-11-05T23:24:07.110Z,101309.06
2022-11-05T23:26:50.915Z,101311.88
2022-11-05T23:29:22.735Z,101305.94
2022-11-05T23:32:13.084Z,101305.28
2022-11-05T23:34:44.895Z,101038.53
2022-11-05T23:37:35.167Z,101303.16
2022-11-05T23:40:07.381Z,101306.63
2022-11-05T23:42:57.665Z,101302.97
2022-11-05T23:45:48.187Z,101301.00
2022-11-05T23:48:19.716Z,101298.53
2022-11-05T23:50:51.614Z,101296.06
2022-11-05T23:53:23.095Z,101292.59
2022-11-05T23:55:54.899Z,101295.06
2022-11-05T23:58:26.392Z,101301.16
